Hiddenite, NC (28636)

8:59 PM EST on January 21, 2017 (GMT -0500)
Vashti-Love Valley | | Change Station

Elev 1253 ft 35.97 °N, 81.06 °W | Updated 20 seconds ago

Overcast
Overcast
52.2 °F
Feels Like 52.2 °F
N
0.0
Wind Variable Wind from ESE

Today
High -- | Low -- °F
--% Chance of Precip.
Yesterday
High -- | Low -- °F
Precip. -- in
Pressure 29.67 in
Visibility 4.0 miles
Clouds Overcast 300 ft
Dew Point 50 °F
Humidity 93%
Rainfall 0.14 in
Snow Depth Not available.
7:31 AM 5:40 PM
Waning Crescent, 30% visible
METAR KSVH 220140Z AUTO 01006KT 4SM BR OVC003 12/12 A2967 RMK AO2 T01150115
Pressure 29.67 in
Visibility 4.0 miles
Clouds Overcast 300 ft
Dew Point 50 °F
Humidity 93%
Rainfall 0.14 in
Snow Depth Not available.
7:31 AM 5:40 PM
Waning Crescent, 30% visible
METAR KSVH 220140Z AUTO 01006KT 4SM BR OVC003 12/12 A2967 RMK AO2 T01150115

Get Your Daily Forecast Email!

Thanks for signing up!

Be on the lookout for a verification email in your inbox.

You'll start receiving the daily forecast at 8 AM.

×

10-Day Weather Forecast

Almanac

Astronomy

Jan. 21, 2017 Rise Set
Actual Time
Civil Twilight
Nautical Twilight
Astronomical Twilight
Moon
Length of Visible Light
Length of Day
Tomorrow will be .
, % of the Moon is Illuminated

Today's Extremes

State Highs State Lows

Community

WunderPhotos

Upload Photos

1,962,540 photos uploaded!

WunderBlog® & News

Nearby

Air Quality

  Air Quality AQ Index Pollutant
Not available.

Snow Depth

Station Depth Elevation

Earthquake Activity

City Distance Mag. Time & Date
Minimum magnitude displayed is 2.5.

Coastal Water Temperatures

Place Temperature

Stations

Nearby Weather Stations

Station Location Temp. Windchill Dew Point Humidity Wind Precip. Elev Updated Type
                   

Watches & Warnings

There are currently no watches in effect.